Gowen, OK (74545)

4:39 PM CDT on August 04, 2015 (GMT -0500)
McAlester Regional | | Change Station
CLOSE
Current Station
Airport
Location: McAlester,
Elevation: 768 ft
Nearby Weather Stations

Elev 768 ft 34.88 °N, 95.78 °W | Updated 46 minutes ago

Partly Cloudy
Partly Cloudy
91 °F
Feels Like 94 °F
N
8
Wind Variable Wind from SW

Today
High -- | Low -- °F
--% Chance of Precip.
Yesterday
High -- | Low -- °F
Precip. -- in
6:33 AM 8:21 PM
Waning Gibbous, 74% visible
Pressure 29.92 in
Visibility 10.0 miles
Clouds Mostly Cloudy 10000 ft
Heat Index 94 °F
Dew Point 67 °F
Humidity 45%
Rainfall 0.00 in
Snow Depth Not available.
UV 4 out of 12
Pollen 5.70 out of 12
Air Quality Not available.
Flu Activity Not available.
METAR KMLC 042053Z AUTO 23007KT 10SM BKN100 33/19 A2995 RMK AO2 SLP132 60000 T03280194 56011

More Conditions Fewer Conditions

Pressure 29.92 in
Visibility 10.0 miles
Clouds Mostly Cloudy 10000 ft
Heat Index 94 °F
Dew Point 67 °F
Humidity 45%
Rainfall 0.00 in
Snow Depth Not available.
UV 4 out of 12
Pollen 5.70 out of 12
Air Quality Not available.
Flu Activity Not available.
METAR KMLC 042053Z AUTO 23007KT 10SM BKN100 33/19 A2995 RMK AO2 SLP132 60000 T03280194 56011

More Conditions Fewer Conditions

Nowcast | as of 3:11 PM CDT on August 4, 2015

at 3:05 PM...National Weather Service Doppler radar detected very light widely scattered showers moving toward the east across eastern Oklahoma and western Arkansas. Through 5:00 PM... scattered light rain shower are expected to continue moving eastward across the area. Little additional rainfall is anticipated.

×

10-Day Weather Forecast

×

Almanac

Astronomy

Aug. 04, 2015 Rise Set
Actual Time
Civil Twilight
Nautical Twilight
Astronomical Twilight
Moon
Length of Visible Light
Length of Day
Tomorrow will be .
, % of the Moon is Illuminated

Today's Extremes

State Highs State Lows

Community

WunderPhotos

Upload Photos

1,843,990 photos uploaded!

WunderBlogs® & News

Nearby

Air Quality

  Air Quality AQ Index Pollutant
Not available.

Snow Depth

Station Depth Elevation

Earthquake Activity

City Distance Mag. Time & Date
Minimum magnitude displayed is 2.5.

Coastal Water Temperatures

Place Temperature

Stations

Nearby Weather Stations

Station Location Temp. Windchill Dew Point Humidity Wind Precip. Elev Updated Type